EW9530 Weather Reports


Display with metric or nautical units.
time (UTC)temp
F
wind
direction
speed
MPH
gust
MPH
rain 1hr
in
rain 24hr
in
rain mn
in
humidity
%
barometer
mb
20190222074507 35 36 4.0 10.0 0.00 0.00 0.00 91 1033.0
20190222071527 35 5 3.0 5.0 0.00 0.00 0.00 91 1032.7
20190222061511 35 33 3.0 7.0 0.00 0.00 0.00 92 1032.3
20190222054512 35 27 4.0 8.0 0.00 0.00 0.00 92 1032.8
20190222044558 36 5 1.0 5.0 0.00 0.00 0.00 92 1032.9
20190222041515 36 34 3.0 6.0 0.00 0.00 0.00 92 1032.7
20190222021535 38 28 1.0 5.0 0.00 0.00 0.00 91 1032.8
20190222014535 39 17 0.0 3.0 0.00 0.00 0.00 91 1033.1
20190222011517 39 31 2.0 5.0 0.00 0.00 0.00 91 1033.0
20190222001515 40 5 3.0 6.0 0.00 0.00 0.00 92 1033.1
20190221214536 43 23 0.0 3.0 0.00 0.00 0.00 89 1032.9
20190221211515 44 26 0.0 0.0 0.00 0.00 0.00 88 1032.6
20190221201513 46 19 0.0 0.0 0.00 0.00 0.00 85 1031.9
20190221194531 49 172 0.0 0.0 0.00 0.00 0.00 85 1031.5
20190221184520 52 165 0.0 0.0 0.00 0.00 0.00 81 1031.2
20190221174529 56 220 0.0 1.0 0.00 0.00 0.00 74 1030.5
20190221171513 58 236 0.0 1.0 0.00 0.00 0.00 69 1030.0
20190221164543 60 207 0.0 1.0 0.00 0.00 0.00 64 1029.8
20190221161535 64 148 0.0 1.0 0.00 0.00 0.00 58 1029.5
20190221154514 66 171 0.0 1.0 0.00 0.00 0.00 49 1029.3
20190221144538 66 189 0.0 0.0 0.00 0.00 0.00 48 1029.3
20190221141536 65 194 0.0 0.0 0.00 0.00 0.00 54 1029.4
20190221134514 64 237 0.0 0.0 0.00 0.00 0.00 51 1029.6
20190221124520 58 291 0.0 0.0 0.00 0.00 0.00 61 1030.4
20190221121524 55 19 0.0 0.0 0.00 0.00 0.00 65 1030.8
20190221114516 51 22 0.0 0.0 0.00 0.00 0.00 70 1031.3
20190221111530 48 79 0.0 0.0 0.00 0.00 0.00 74 1031.7
20190221101517 42 13 0.0 0.0 0.00 0.00 0.00 83 1032.1
20190221094520 38 19 0.0 3.0 0.00 0.00 0.00 90 1032.3
20190221084545 36 58 0.0 4.0 0.00 0.00 0.00 92 1032.3
20190221081554 35 360 0.0 4.0 0.00 0.00 0.00 92 1032.2